Terminal Aerodrome Forecast
Issued by NWS Hastings, NE

Home | Current Version | Previous Version | Text Only | Print | Product List | Glossary On
Versions: 1 2 3 4 5 6 7 8 9 10 11 12 13 14 15 16 17 18 19 20
000
FTUS45 KGID 281846 AAA
TAFEAR
TAF AMD
KEAR 281846Z 2819/2918 36020G26KT P6SM SCT035 SCT120
     FM282200 36012G19KT P6SM FEW120
     FM290300 35006KT P6SM FEW250
     FM291400 VRB06KT P6SM SCT120
      AMD LTD TO CLD VIS AND WIND=

USA.gov is the U.S. government's official web portal to all federal, state and local government web resources and services.